sensor_id;sensor_type;location;lat;lon;timestamp;P1;durP1;ratioP1;P2;durP2;ratioP2
73015;SDS011;61893;50.074;14.440;2023-04-06T00:00:28;27.17;;;12.50;;
73015;SDS011;61893;50.074;14.440;2023-04-06T00:03:14;21.73;;;11.83;;
73015;SDS011;61893;50.074;14.440;2023-04-06T00:05:40;27.77;;;13.00;;
73015;SDS011;61893;50.074;14.440;2023-04-06T00:08:21;25.63;;;12.90;;
73015;SDS011;61893;50.074;14.440;2023-04-06T00:11:03;29.77;;;13.33;;
73015;SDS011;61893;50.074;14.440;2023-04-06T00:13:29;21.47;;;12.67;;
73015;SDS011;61893;50.074;14.440;2023-04-06T00:15:59;28.47;;;13.90;;
73015;SDS011;61893;50.074;14.440;2023-04-06T00:18:42;23.57;;;13.10;;
73015;SDS011;61893;50.074;14.440;2023-04-06T00:21:11;30.03;;;13.70;;
73015;SDS011;61893;50.074;14.440;2023-04-06T00:23:38;27.43;;;14.53;;
73015;SDS011;61893;50.074;14.440;2023-04-06T00:26:09;27.33;;;14.07;;
73015;SDS011;61893;50.074;14.440;2023-04-06T00:29:07;29.60;;;13.93;;
73015;SDS011;61893;50.074;14.440;2023-04-06T00:31:33;29.80;;;14.97;;
73015;SDS011;61893;50.074;14.440;2023-04-06T00:33:59;29.33;;;15.63;;
73015;SDS011;61893;50.074;14.440;2023-04-06T00:36:39;30.07;;;14.87;;
73015;SDS011;61893;50.074;14.440;2023-04-06T00:39:11;28.97;;;14.17;;
73015;SDS011;61893;50.074;14.440;2023-04-06T00:41:46;32.60;;;15.80;;
73015;SDS011;61893;50.074;14.440;2023-04-06T00:44:53;31.37;;;14.70;;
73015;SDS011;61893;50.074;14.440;2023-04-06T00:47:40;30.07;;;14.97;;
73015;SDS011;61893;50.074;14.440;2023-04-06T00:50:21;34.33;;;16.87;;
73015;SDS011;61893;50.074;14.440;2023-04-06T00:52:58;33.23;;;15.93;;
73015;SDS011;61893;50.074;14.440;2023-04-06T00:55:32;30.50;;;16.20;;
73015;SDS011;61893;50.074;14.440;2023-04-06T00:57:58;29.43;;;15.77;;
73015;SDS011;61893;50.074;14.440;2023-04-06T01:01:08;28.67;;;15.37;;
73015;SDS011;61893;50.074;14.440;2023-04-06T01:03:50;28.43;;;15.40;;
73015;SDS011;61893;50.074;14.440;2023-04-06T01:06:16;30.37;;;15.73;;
73015;SDS011;61893;50.074;14.440;2023-04-06T01:08:51;31.47;;;16.53;;
73015;SDS011;61893;50.074;14.440;2023-04-06T01:11:25;32.87;;;16.27;;
73015;SDS011;61893;50.074;14.440;2023-04-06T01:13:51;34.47;;;16.30;;
73015;SDS011;61893;50.074;14.440;2023-04-06T01:16:28;37.33;;;16.50;;
73015;SDS011;61893;50.074;14.440;2023-04-06T01:19:07;34.30;;;16.57;;
73015;SDS011;61893;50.074;14.440;2023-04-06T01:21:39;30.57;;;16.10;;
73015;SDS011;61893;50.074;14.440;2023-04-06T01:24:42;33.37;;;17.43;;
73015;SDS011;61893;50.074;14.440;2023-04-06T01:27:22;31.03;;;17.30;;
73015;SDS011;61893;50.074;14.440;2023-04-06T01:29:55;33.40;;;16.50;;
73015;SDS011;61893;50.074;14.440;2023-04-06T01:32:32;28.13;;;15.73;;
73015;SDS011;61893;50.074;14.440;2023-04-06T01:35:04;32.47;;;16.03;;
73015;SDS011;61893;50.074;14.440;2023-04-06T01:37:30;33.60;;;16.40;;
73015;SDS011;61893;50.074;14.440;2023-04-06T01:40:03;38.23;;;18.23;;
73015;SDS011;61893;50.074;14.440;2023-04-06T01:42:30;36.40;;;18.40;;
73015;SDS011;61893;50.074;14.440;2023-04-06T01:44:56;34.53;;;17.30;;
73015;SDS011;61893;50.074;14.440;2023-04-06T01:47:45;35.87;;;17.13;;
73015;SDS011;61893;50.074;14.440;2023-04-06T01:50:25;36.17;;;17.17;;
73015;SDS011;61893;50.074;14.440;2023-04-06T01:52:55;32.77;;;17.13;;
73015;SDS011;61893;50.074;14.440;2023-04-06T01:55:22;33.20;;;17.67;;
73015;SDS011;61893;50.074;14.440;2023-04-06T01:57:53;34.30;;;17.57;;
73015;SDS011;61893;50.074;14.440;2023-04-06T02:00:32;30.80;;;16.13;;
73015;SDS011;61893;50.074;14.440;2023-04-06T02:03:15;36.47;;;17.43;;
73015;SDS011;61893;50.074;14.440;2023-04-06T02:05:53;34.00;;;17.67;;
73015;SDS011;61893;50.074;14.440;2023-04-06T02:08:19;40.53;;;18.27;;
73015;SDS011;61893;50.074;14.440;2023-04-06T02:10:54;32.03;;;17.30;;
73015;SDS011;61893;50.074;14.440;2023-04-06T02:13:23;30.97;;;16.87;;
73015;SDS011;61893;50.074;14.440;2023-04-06T02:15:49;36.80;;;17.30;;
73015;SDS011;61893;50.074;14.440;2023-04-06T02:18:20;35.27;;;16.87;;
73015;SDS011;61893;50.074;14.440;2023-04-06T02:21:21;34.67;;;17.30;;
73015;SDS011;61893;50.074;14.440;2023-04-06T02:23:53;32.80;;;16.13;;
73015;SDS011;61893;50.074;14.440;2023-04-06T02:26:19;35.53;;;17.67;;
73015;SDS011;61893;50.074;14.440;2023-04-06T02:28:45;38.33;;;18.13;;
73015;SDS011;61893;50.074;14.440;2023-04-06T02:31:11;33.70;;;17.10;;
73015;SDS011;61893;50.074;14.440;2023-04-06T02:33:37;33.60;;;16.33;;
73015;SDS011;61893;50.074;14.440;2023-04-06T02:36:03;35.93;;;16.93;;
73015;SDS011;61893;50.074;14.440;2023-04-06T02:38:29;31.43;;;16.90;;
73015;SDS011;61893;50.074;14.440;2023-04-06T02:40:55;29.90;;;15.47;;
73015;SDS011;61893;50.074;14.440;2023-04-06T02:43:22;32.70;;;17.13;;
73015;SDS011;61893;50.074;14.440;2023-04-06T02:45:48;34.87;;;16.23;;
73015;SDS011;61893;50.074;14.440;2023-04-06T02:48:13;34.57;;;16.53;;
73015;SDS011;61893;50.074;14.440;2023-04-06T02:50:40;30.50;;;16.20;;
73015;SDS011;61893;50.074;14.440;2023-04-06T02:53:05;37.87;;;17.07;;
73015;SDS011;61893;50.074;14.440;2023-04-06T02:55:31;30.97;;;16.37;;
73015;SDS011;61893;50.074;14.440;2023-04-06T02:57:57;32.00;;;15.60;;
73015;SDS011;61893;50.074;14.440;2023-04-06T03:00:23;27.87;;;15.20;;
73015;SDS011;61893;50.074;14.440;2023-04-06T03:02:48;27.67;;;15.53;;
73015;SDS011;61893;50.074;14.440;2023-04-06T03:05:14;27.10;;;14.50;;
73015;SDS011;61893;50.074;14.440;2023-04-06T03:07:40;31.43;;;16.07;;
73015;SDS011;61893;50.074;14.440;2023-04-06T03:10:06;27.20;;;15.13;;
73015;SDS011;61893;50.074;14.440;2023-04-06T03:12:32;36.80;;;16.27;;
73015;SDS011;61893;50.074;14.440;2023-04-06T03:14:58;31.57;;;16.30;;
73015;SDS011;61893;50.074;14.440;2023-04-06T03:17:24;30.90;;;16.10;;
73015;SDS011;61893;50.074;14.440;2023-04-06T03:19:50;28.80;;;15.07;;
73015;SDS011;61893;50.074;14.440;2023-04-06T03:22:16;28.53;;;15.67;;
73015;SDS011;61893;50.074;14.440;2023-04-06T03:24:42;30.67;;;15.77;;
73015;SDS011;61893;50.074;14.440;2023-04-06T03:27:07;37.37;;;15.33;;
73015;SDS011;61893;50.074;14.440;2023-04-06T03:29:33;27.50;;;14.80;;
73015;SDS011;61893;50.074;14.440;2023-04-06T03:31:59;26.37;;;13.30;;
73015;SDS011;61893;50.074;14.440;2023-04-06T03:34:30;28.20;;;15.13;;
73015;SDS011;61893;50.074;14.440;2023-04-06T03:37:28;27.47;;;14.43;;
73015;SDS011;61893;50.074;14.440;2023-04-06T03:40:19;24.53;;;12.83;;
73015;SDS011;61893;50.074;14.440;2023-04-06T03:42:46;31.60;;;15.77;;
73015;SDS011;61893;50.074;14.440;2023-04-06T03:45:11;26.73;;;13.67;;
73015;SDS011;61893;50.074;14.440;2023-04-06T03:47:40;27.73;;;14.53;;
73015;SDS011;61893;50.074;14.440;2023-04-06T03:50:06;32.63;;;14.90;;
73015;SDS011;61893;50.074;14.440;2023-04-06T03:52:37;28.07;;;14.23;;
73015;SDS011;61893;50.074;14.440;2023-04-06T03:55:03;27.60;;;14.33;;
73015;SDS011;61893;50.074;14.440;2023-04-06T03:57:35;24.07;;;12.47;;
73015;SDS011;61893;50.074;14.440;2023-04-06T04:00:17;24.83;;;14.10;;
73015;SDS011;61893;50.074;14.440;2023-04-06T04:03:01;32.07;;;14.93;;
73015;SDS011;61893;50.074;14.440;2023-04-06T04:05:53;28.10;;;15.00;;
73015;SDS011;61893;50.074;14.440;2023-04-06T04:08:22;27.67;;;14.57;;
73015;SDS011;61893;50.074;14.440;2023-04-06T04:10:58;29.33;;;15.97;;
73015;SDS011;61893;50.074;14.440;2023-04-06T04:13:26;29.77;;;15.40;;
73015;SDS011;61893;50.074;14.440;2023-04-06T04:15:54;31.70;;;14.53;;
73015;SDS011;61893;50.074;14.440;2023-04-06T04:18:27;25.30;;;14.70;;
73015;SDS011;61893;50.074;14.440;2023-04-06T04:20:56;25.07;;;13.97;;
73015;SDS011;61893;50.074;14.440;2023-04-06T04:23:43;28.30;;;13.60;;
73015;SDS011;61893;50.074;14.440;2023-04-06T04:26:11;38.03;;;15.07;;
73015;SDS011;61893;50.074;14.440;2023-04-06T04:28:55;30.57;;;15.37;;
73015;SDS011;61893;50.074;14.440;2023-04-06T04:31:41;26.70;;;13.43;;
73015;SDS011;61893;50.074;14.440;2023-04-06T04:34:09;25.07;;;13.60;;
73015;SDS011;61893;50.074;14.440;2023-04-06T04:36:36;28.80;;;13.97;;
73015;SDS011;61893;50.074;14.440;2023-04-06T04:39:09;27.88;;;14.60;;
73015;SDS011;61893;50.074;14.440;2023-04-06T04:41:34;31.50;;;14.80;;
73015;SDS011;61893;50.074;14.440;2023-04-06T04:44:00;26.90;;;13.90;;
73015;SDS011;61893;50.074;14.440;2023-04-06T04:46:32;31.83;;;15.03;;
73015;SDS011;61893;50.074;14.440;2023-04-06T04:49:01;31.63;;;14.60;;
73015;SDS011;61893;50.074;14.440;2023-04-06T04:51:29;26.43;;;14.30;;
73015;SDS011;61893;50.074;14.440;2023-04-06T04:53:59;30.33;;;14.90;;
73015;SDS011;61893;50.074;14.440;2023-04-06T04:56:25;31.07;;;15.67;;
73015;SDS011;61893;50.074;14.440;2023-04-06T04:59:05;29.60;;;14.47;;
73015;SDS011;61893;50.074;14.440;2023-04-06T05:01:30;25.53;;;14.27;;
73015;SDS011;61893;50.074;14.440;2023-04-06T05:03:56;28.77;;;14.47;;
73015;SDS011;61893;50.074;14.440;2023-04-06T05:06:22;32.57;;;15.20;;
73015;SDS011;61893;50.074;14.440;2023-04-06T05:08:47;34.43;;;15.40;;
73015;SDS011;61893;50.074;14.440;2023-04-06T05:11:13;29.90;;;14.77;;
73015;SDS011;61893;50.074;14.440;2023-04-06T05:14:11;30.23;;;14.03;;
73015;SDS011;61893;50.074;14.440;2023-04-06T05:16:43;27.17;;;13.47;;
73015;SDS011;61893;50.074;14.440;2023-04-06T05:19:15;28.10;;;14.20;;
73015;SDS011;61893;50.074;14.440;2023-04-06T05:22:01;27.87;;;14.90;;
73015;SDS011;61893;50.074;14.440;2023-04-06T05:24:41;27.17;;;14.37;;
73015;SDS011;61893;50.074;14.440;2023-04-06T05:27:06;25.20;;;13.73;;
73015;SDS011;61893;50.074;14.440;2023-04-06T05:29:43;26.30;;;14.10;;
73015;SDS011;61893;50.074;14.440;2023-04-06T05:32:15;27.07;;;14.13;;
73015;SDS011;61893;50.074;14.440;2023-04-06T05:34:48;26.13;;;14.00;;
73015;SDS011;61893;50.074;14.440;2023-04-06T05:37:16;25.17;;;13.73;;
73015;SDS011;61893;50.074;14.440;2023-04-06T05:39:48;21.77;;;12.17;;
73015;SDS011;61893;50.074;14.440;2023-04-06T05:42:14;24.97;;;13.73;;
73015;SDS011;61893;50.074;14.440;2023-04-06T05:44:40;28.53;;;14.00;;
73015;SDS011;61893;50.074;14.440;2023-04-06T05:47:06;25.87;;;14.27;;
73015;SDS011;61893;50.074;14.440;2023-04-06T05:49:32;25.30;;;13.80;;
73015;SDS011;61893;50.074;14.440;2023-04-06T05:51:57;26.37;;;14.27;;
73015;SDS011;61893;50.074;14.440;2023-04-06T05:54:43;25.27;;;13.80;;
73015;SDS011;61893;50.074;14.440;2023-04-06T05:57:09;24.13;;;14.30;;
73015;SDS011;61893;50.074;14.440;2023-04-06T05:59:54;27.25;;;15.20;;
73015;SDS011;61893;50.074;14.440;2023-04-06T06:03:02;25.50;;;14.23;;
73015;SDS011;61893;50.074;14.440;2023-04-06T06:06:20;25.48;;;13.23;;
73015;SDS011;61893;50.074;14.440;2023-04-06T06:09:03;24.90;;;13.90;;
73015;SDS011;61893;50.074;14.440;2023-04-06T06:11:45;22.58;;;13.75;;
73015;SDS011;61893;50.074;14.440;2023-04-06T06:14:51;18.73;;;12.05;;
73015;SDS011;61893;50.074;14.440;2023-04-06T06:19:45;25.13;;;13.63;;
73015;SDS011;61893;50.074;14.440;2023-04-06T06:23:12;24.80;;;13.43;;
73015;SDS011;61893;50.074;14.440;2023-04-06T06:33:03;27.08;;;14.75;;
73015;SDS011;61893;50.074;14.440;2023-04-06T06:36:07;23.02;;;14.27;;
73015;SDS011;61893;50.074;14.440;2023-04-06T06:39:27;25.67;;;15.07;;
73015;SDS011;61893;50.074;14.440;2023-04-06T06:42:17;26.77;;;14.30;;
73015;SDS011;61893;50.074;14.440;2023-04-06T06:44:59;28.48;;;13.57;;
73015;SDS011;61893;50.074;14.440;2023-04-06T06:48:14;24.27;;;14.88;;
73015;SDS011;61893;50.074;14.440;2023-04-06T06:52:03;22.17;;;13.85;;
73015;SDS011;61893;50.074;14.440;2023-04-06T06:54:32;25.65;;;14.13;;
73015;SDS011;61893;50.074;14.440;2023-04-06T06:57:17;25.42;;;13.32;;
73015;SDS011;61893;50.074;14.440;2023-04-06T07:00:47;24.45;;;14.13;;
73015;SDS011;61893;50.074;14.440;2023-04-06T07:03:33;26.35;;;13.57;;
73015;SDS011;61893;50.074;14.440;2023-04-06T07:06:19;24.48;;;13.85;;
73015;SDS011;61893;50.074;14.440;2023-04-06T07:10:01;25.15;;;13.18;;
73015;SDS011;61893;50.074;14.440;2023-04-06T07:13:19;18.30;;;13.43;;
73015;SDS011;61893;50.074;14.440;2023-04-06T07:17:09;23.45;;;13.55;;
73015;SDS011;61893;50.074;14.440;2023-04-06T07:20:30;24.73;;;13.52;;
73015;SDS011;61893;50.074;14.440;2023-04-06T07:24:20;22.35;;;13.45;;
73015;SDS011;61893;50.074;14.440;2023-04-06T07:27:32;22.80;;;13.97;;
73015;SDS011;61893;50.074;14.440;2023-04-06T07:31:33;22.45;;;12.63;;
73015;SDS011;61893;50.074;14.440;2023-04-06T07:34:57;15.38;;;10.95;;
73015;SDS011;61893;50.074;14.440;2023-04-06T07:38:10;21.25;;;12.73;;
73015;SDS011;61893;50.074;14.440;2023-04-06T07:40:56;20.38;;;12.95;;
73015;SDS011;61893;50.074;14.440;2023-04-06T07:43:46;22.65;;;12.18;;
73015;SDS011;61893;50.074;14.440;2023-04-06T07:47:26;17.73;;;11.35;;
73015;SDS011;61893;50.074;14.440;2023-04-06T07:51:15;21.27;;;11.90;;
73015;SDS011;61893;50.074;14.440;2023-04-06T07:54:50;18.90;;;10.90;;
73015;SDS011;61893;50.074;14.440;2023-04-06T07:57:58;17.27;;;9.88;;
73015;SDS011;61893;50.074;14.440;2023-04-06T08:01:08;17.02;;;10.30;;
73015;SDS011;61893;50.074;14.440;2023-04-06T08:04:34;15.32;;;9.30;;
73015;SDS011;61893;50.074;14.440;2023-04-06T08:07:42;15.38;;;10.23;;
73015;SDS011;61893;50.074;14.440;2023-04-06T08:10:49;17.25;;;10.35;;
73015;SDS011;61893;50.074;14.440;2023-04-06T08:14:10;18.67;;;10.90;;
73015;SDS011;61893;50.074;14.440;2023-04-06T08:16:50;16.50;;;10.32;;
73015;SDS011;61893;50.074;14.440;2023-04-06T08:19:50;16.58;;;10.63;;
73015;SDS011;61893;50.074;14.440;2023-04-06T08:23:24;19.30;;;10.45;;
73015;SDS011;61893;50.074;14.440;2023-04-06T08:26:05;16.50;;;9.55;;
73015;SDS011;61893;50.074;14.440;2023-04-06T08:29:17;17.13;;;10.20;;
73015;SDS011;61893;50.074;14.440;2023-04-06T08:32:33;16.52;;;8.85;;
73015;SDS011;61893;50.074;14.440;2023-04-06T08:36:24;12.07;;;9.38;;
73015;SDS011;61893;50.074;14.440;2023-04-06T08:43:18;12.27;;;8.80;;
73015;SDS011;61893;50.074;14.440;2023-04-06T08:45:48;12.55;;;8.07;;
73015;SDS011;61893;50.074;14.440;2023-04-06T08:48:13;11.80;;;8.25;;
73015;SDS011;61893;50.074;14.440;2023-04-06T08:50:43;16.00;;;8.38;;
73015;SDS011;61893;50.074;14.440;2023-04-06T08:53:36;14.85;;;7.88;;
73015;SDS011;61893;50.074;14.440;2023-04-06T08:56:43;15.63;;;7.72;;
73015;SDS011;61893;50.074;14.440;2023-04-06T08:59:41;16.40;;;7.82;;
73015;SDS011;61893;50.074;14.440;2023-04-06T09:02:28;12.13;;;7.65;;
73015;SDS011;61893;50.074;14.440;2023-04-06T09:05:09;13.27;;;7.75;;
73015;SDS011;61893;50.074;14.440;2023-04-06T09:07:53;10.07;;;6.57;;
73015;SDS011;61893;50.074;14.440;2023-04-06T09:11:47;10.52;;;6.10;;
73015;SDS011;61893;50.074;14.440;2023-04-06T09:14:40;9.95;;;6.93;;
73015;SDS011;61893;50.074;14.440;2023-04-06T09:17:58;11.30;;;6.20;;
73015;SDS011;61893;50.074;14.440;2023-04-06T09:22:05;10.02;;;5.82;;
73015;SDS011;61893;50.074;14.440;2023-04-06T09:25:18;10.80;;;6.40;;
73015;SDS011;61893;50.074;14.440;2023-04-06T09:31:25;9.63;;;6.57;;
73015;SDS011;61893;50.074;14.440;2023-04-06T09:35:08;9.82;;;6.50;;
73015;SDS011;61893;50.074;14.440;2023-04-06T09:38:20;21.90;;;6.78;;
73015;SDS011;61893;50.074;14.440;2023-04-06T09:41:34;9.07;;;6.80;;
73015;SDS011;61893;50.074;14.440;2023-04-06T09:45:01;11.85;;;6.47;;
73015;SDS011;61893;50.074;14.440;2023-04-06T09:48:02;10.25;;;6.20;;
73015;SDS011;61893;50.074;14.440;2023-04-06T09:51:04;9.90;;;6.53;;
73015;SDS011;61893;50.074;14.440;2023-04-06T09:54:47;8.32;;;5.80;;
73015;SDS011;61893;50.074;14.440;2023-04-06T10:01:09;8.95;;;5.45;;
73015;SDS011;61893;50.074;14.440;2023-04-06T10:08:48;8.87;;;5.27;;
73015;SDS011;61893;50.074;14.440;2023-04-06T10:12:45;7.22;;;4.65;;
73015;SDS011;61893;50.074;14.440;2023-04-06T10:16:06;6.40;;;4.93;;
73015;SDS011;61893;50.074;14.440;2023-04-06T10:18:35;10.55;;;5.30;;
73015;SDS011;61893;50.074;14.440;2023-04-06T10:21:09;6.68;;;4.90;;
73015;SDS011;61893;50.074;14.440;2023-04-06T10:26:28;11.07;;;4.88;;
73015;SDS011;61893;50.074;14.440;2023-04-06T10:29:05;7.50;;;4.35;;
73015;SDS011;61893;50.074;14.440;2023-04-06T10:31:42;7.22;;;4.50;;
73015;SDS011;61893;50.074;14.440;2023-04-06T10:34:09;7.85;;;4.60;;
73015;SDS011;61893;50.074;14.440;2023-04-06T10:36:46;7.55;;;4.72;;
73015;SDS011;61893;50.074;14.440;2023-04-06T10:39:57;9.45;;;4.63;;
73015;SDS011;61893;50.074;14.440;2023-04-06T10:43:06;7.53;;;4.85;;
73015;SDS011;61893;50.074;14.440;2023-04-06T10:46:10;7.15;;;5.28;;
73015;SDS011;61893;50.074;14.440;2023-04-06T10:49:52;9.07;;;4.75;;
73015;SDS011;61893;50.074;14.440;2023-04-06T10:56:40;8.52;;;4.97;;
73015;SDS011;61893;50.074;14.440;2023-04-06T10:59:35;8.05;;;4.85;;
73015;SDS011;61893;50.074;14.440;2023-04-06T11:03:06;9.75;;;4.70;;
73015;SDS011;61893;50.074;14.440;2023-04-06T11:09:38;7.43;;;4.95;;
73015;SDS011;61893;50.074;14.440;2023-04-06T11:12:31;7.50;;;4.35;;
73015;SDS011;61893;50.074;14.440;2023-04-06T11:15:51;6.57;;;4.63;;
73015;SDS011;61893;50.074;14.440;2023-04-06T11:19:32;6.32;;;4.88;;
73015;SDS011;61893;50.074;14.440;2023-04-06T11:23:08;9.18;;;4.55;;
73015;SDS011;61893;50.074;14.440;2023-04-06T11:25:53;5.13;;;4.45;;
73015;SDS011;61893;50.074;14.440;2023-04-06T11:28:58;7.60;;;4.63;;
73015;SDS011;61893;50.074;14.440;2023-04-06T11:32:10;6.40;;;4.10;;
73015;SDS011;61893;50.074;14.440;2023-04-06T11:35:34;6.57;;;4.72;;
73015;SDS011;61893;50.074;14.440;2023-04-06T11:38:52;5.40;;;3.92;;
73015;SDS011;61893;50.074;14.440;2023-04-06T11:42:24;10.73;;;4.60;;
73015;SDS011;61893;50.074;14.440;2023-04-06T11:46:17;7.32;;;4.28;;
73015;SDS011;61893;50.074;14.440;2023-04-06T11:49:44;6.72;;;3.72;;
73015;SDS011;61893;50.074;14.440;2023-04-06T11:52:59;9.00;;;4.45;;
73015;SDS011;61893;50.074;14.440;2023-04-06T11:56:29;6.35;;;4.22;;
73015;SDS011;61893;50.074;14.440;2023-04-06T11:59:43;9.38;;;3.85;;
73015;SDS011;61893;50.074;14.440;2023-04-06T12:02:35;6.28;;;3.72;;
73015;SDS011;61893;50.074;14.440;2023-04-06T12:05:36;6.05;;;3.75;;
73015;SDS011;61893;50.074;14.440;2023-04-06T12:09:41;5.57;;;3.88;;
73015;SDS011;61893;50.074;14.440;2023-04-06T12:12:55;7.38;;;4.40;;
73015;SDS011;61893;50.074;14.440;2023-04-06T12:15:45;6.93;;;4.18;;
73015;SDS011;61893;50.074;14.440;2023-04-06T12:19:05;6.30;;;4.53;;
73015;SDS011;61893;50.074;14.440;2023-04-06T12:22:39;8.27;;;5.03;;
73015;SDS011;61893;50.074;14.440;2023-04-06T12:26:30;5.20;;;4.18;;
73015;SDS011;61893;50.074;14.440;2023-04-06T12:29:30;6.93;;;4.60;;
73015;SDS011;61893;50.074;14.440;2023-04-06T12:34:37;8.48;;;5.25;;
73015;SDS011;61893;50.074;14.440;2023-04-06T12:37:57;9.02;;;5.22;;
73015;SDS011;61893;50.074;14.440;2023-04-06T12:43:32;6.75;;;5.07;;
73015;SDS011;61893;50.074;14.440;2023-04-06T12:46:13;8.35;;;5.10;;
73015;SDS011;61893;50.074;14.440;2023-04-06T12:48:39;7.13;;;5.15;;
73015;SDS011;61893;50.074;14.440;2023-04-06T12:51:06;8.20;;;4.70;;
73015;SDS011;61893;50.074;14.440;2023-04-06T12:56:14;6.30;;;4.38;;
73015;SDS011;61893;50.074;14.440;2023-04-06T12:59:17;7.30;;;4.80;;
73015;SDS011;61893;50.074;14.440;2023-04-06T13:02:50;6.40;;;4.93;;
73015;SDS011;61893;50.074;14.440;2023-04-06T13:06:25;7.63;;;4.90;;
73015;SDS011;61893;50.074;14.440;2023-04-06T13:09:37;9.57;;;4.93;;
73015;SDS011;61893;50.074;14.440;2023-04-06T13:12:18;7.68;;;4.97;;
73015;SDS011;61893;50.074;14.440;2023-04-06T13:14:59;7.22;;;4.45;;
73015;SDS011;61893;50.074;14.440;2023-04-06T13:17:45;6.13;;;4.93;;
73015;SDS011;61893;50.074;14.440;2023-04-06T13:21:04;5.82;;;4.57;;
73015;SDS011;61893;50.074;14.440;2023-04-06T13:24:16;7.72;;;5.13;;
73015;SDS011;61893;50.074;14.440;2023-04-06T13:27:14;9.70;;;4.88;;
73015;SDS011;61893;50.074;14.440;2023-04-06T13:30:47;6.07;;;4.50;;
73015;SDS011;61893;50.074;14.440;2023-04-06T13:34:01;7.82;;;5.10;;
73015;SDS011;61893;50.074;14.440;2023-04-06T13:37:17;6.80;;;5.10;;
73015;SDS011;61893;50.074;14.440;2023-04-06T13:40:24;7.07;;;4.82;;
73015;SDS011;61893;50.074;14.440;2023-04-06T13:43:24;7.28;;;5.40;;
73015;SDS011;61893;50.074;14.440;2023-04-06T13:46:51;7.20;;;5.10;;
73015;SDS011;61893;50.074;14.440;2023-04-06T13:50:53;8.43;;;5.45;;
73015;SDS011;61893;50.074;14.440;2023-04-06T13:54:23;8.77;;;5.30;;
73015;SDS011;61893;50.074;14.440;2023-04-06T13:57:43;9.70;;;5.68;;
73015;SDS011;61893;50.074;14.440;2023-04-06T14:01:04;7.13;;;5.43;;
73015;SDS011;61893;50.074;14.440;2023-04-06T14:04:45;8.05;;;5.60;;
73015;SDS011;61893;50.074;14.440;2023-04-06T14:07:59;6.85;;;5.68;;
73015;SDS011;61893;50.074;14.440;2023-04-06T14:11:10;6.82;;;5.50;;
73015;SDS011;61893;50.074;14.440;2023-04-06T14:14:24;6.25;;;5.00;;
73015;SDS011;61893;50.074;14.440;2023-04-06T14:17:49;9.32;;;5.55;;
73015;SDS011;61893;50.074;14.440;2023-04-06T14:21:13;9.18;;;5.13;;
73015;SDS011;61893;50.074;14.440;2023-04-06T14:24:06;9.88;;;5.85;;
73015;SDS011;61893;50.074;14.440;2023-04-06T14:27:00;10.07;;;5.80;;
73015;SDS011;61893;50.074;14.440;2023-04-06T14:30:41;8.55;;;5.25;;
73015;SDS011;61893;50.074;14.440;2023-04-06T14:34:32;7.88;;;5.22;;
73015;SDS011;61893;50.074;14.440;2023-04-06T14:37:21;7.47;;;5.10;;
73015;SDS011;61893;50.074;14.440;2023-04-06T14:41:18;7.72;;;5.25;;
73015;SDS011;61893;50.074;14.440;2023-04-06T14:44:40;6.75;;;4.95;;
73015;SDS011;61893;50.074;14.440;2023-04-06T14:48:27;7.18;;;5.10;;
73015;SDS011;61893;50.074;14.440;2023-04-06T14:51:14;6.18;;;4.78;;
73015;SDS011;61893;50.074;14.440;2023-04-06T14:54:32;8.07;;;4.97;;
73015;SDS011;61893;50.074;14.440;2023-04-06T14:57:40;6.60;;;5.20;;
73015;SDS011;61893;50.074;14.440;2023-04-06T15:01:01;6.78;;;5.22;;
73015;SDS011;61893;50.074;14.440;2023-04-06T15:03:58;9.02;;;5.43;;
73015;SDS011;61893;50.074;14.440;2023-04-06T15:06:46;8.60;;;5.78;;
73015;SDS011;61893;50.074;14.440;2023-04-06T15:09:35;8.93;;;4.60;;
73015;SDS011;61893;50.074;14.440;2023-04-06T15:12:24;8.77;;;5.60;;
73015;SDS011;61893;50.074;14.440;2023-04-06T15:16:01;10.10;;;5.15;;
73015;SDS011;61893;50.074;14.440;2023-04-06T15:19:23;6.78;;;4.75;;
73015;SDS011;61893;50.074;14.440;2023-04-06T15:22:24;5.90;;;4.57;;
73015;SDS011;61893;50.074;14.440;2023-04-06T15:25:51;8.18;;;5.22;;
73015;SDS011;61893;50.074;14.440;2023-04-06T15:28:32;6.70;;;4.88;;
73015;SDS011;61893;50.074;14.440;2023-04-06T15:31:35;7.78;;;6.15;;
73015;SDS011;61893;50.074;14.440;2023-04-06T15:35:14;8.02;;;5.50;;
73015;SDS011;61893;50.074;14.440;2023-04-06T15:38:29;8.03;;;5.57;;
73015;SDS011;61893;50.074;14.440;2023-04-06T15:41:30;6.60;;;5.23;;
73015;SDS011;61893;50.074;14.440;2023-04-06T15:45:03;8.03;;;5.60;;
73015;SDS011;61893;50.074;14.440;2023-04-06T15:48:25;8.05;;;5.75;;
73015;SDS011;61893;50.074;14.440;2023-04-06T15:52:28;9.03;;;6.13;;
73015;SDS011;61893;50.074;14.440;2023-04-06T15:56:08;12.27;;;5.93;;
73015;SDS011;61893;50.074;14.440;2023-04-06T15:59:51;9.60;;;6.32;;
73015;SDS011;61893;50.074;14.440;2023-04-06T16:03:11;7.77;;;6.07;;
73015;SDS011;61893;50.074;14.440;2023-04-06T16:06:19;8.37;;;5.97;;
73015;SDS011;61893;50.074;14.440;2023-04-06T16:09:06;8.90;;;6.07;;
73015;SDS011;61893;50.074;14.440;2023-04-06T16:12:42;8.43;;;6.47;;
73015;SDS011;61893;50.074;14.440;2023-04-06T16:16:07;9.73;;;5.57;;
73015;SDS011;61893;50.074;14.440;2023-04-06T16:19:26;10.13;;;5.60;;
73015;SDS011;61893;50.074;14.440;2023-04-06T16:23:34;9.43;;;5.50;;
73015;SDS011;61893;50.074;14.440;2023-04-06T16:27:09;6.77;;;5.43;;
73015;SDS011;61893;50.074;14.440;2023-04-06T16:30:46;7.83;;;5.83;;
73015;SDS011;61893;50.074;14.440;2023-04-06T16:33:30;10.07;;;5.67;;
73015;SDS011;61893;50.074;14.440;2023-04-06T16:36:54;9.70;;;6.17;;
73015;SDS011;61893;50.074;14.440;2023-04-06T16:44:09;7.93;;;5.40;;
73015;SDS011;61893;50.074;14.440;2023-04-06T16:47:16;9.30;;;5.93;;
73015;SDS011;61893;50.074;14.440;2023-04-06T16:50:35;9.30;;;6.10;;
73015;SDS011;61893;50.074;14.440;2023-04-06T16:54:28;9.20;;;5.37;;
73015;SDS011;61893;50.074;14.440;2023-04-06T16:58:06;7.07;;;5.63;;
73015;SDS011;61893;50.074;14.440;2023-04-06T17:01:36;8.47;;;6.03;;
73015;SDS011;61893;50.074;14.440;2023-04-06T17:05:02;12.83;;;6.40;;
73015;SDS011;61893;50.074;14.440;2023-04-06T17:08:13;6.53;;;5.40;;
73015;SDS011;61893;50.074;14.440;2023-04-06T17:11:39;10.47;;;5.77;;
73015;SDS011;61893;50.074;14.440;2023-04-06T17:14:42;8.23;;;5.80;;
73015;SDS011;61893;50.074;14.440;2023-04-06T17:18:26;7.70;;;5.03;;
73015;SDS011;61893;50.074;14.440;2023-04-06T17:21:24;6.27;;;5.03;;
73015;SDS011;61893;50.074;14.440;2023-04-06T17:28:26;7.07;;;5.03;;
73015;SDS011;61893;50.074;14.440;2023-04-06T17:32:02;9.47;;;4.77;;
73015;SDS011;61893;50.074;14.440;2023-04-06T17:35:40;6.17;;;4.70;;
73015;SDS011;61893;50.074;14.440;2023-04-06T17:38:56;8.83;;;5.00;;
73015;SDS011;61893;50.074;14.440;2023-04-06T17:42:29;10.07;;;5.50;;
73015;SDS011;61893;50.074;14.440;2023-04-06T17:46:29;7.83;;;5.27;;
73015;SDS011;61893;50.074;14.440;2023-04-06T17:50:31;10.00;;;4.93;;
73015;SDS011;61893;50.074;14.440;2023-04-06T17:54:07;9.45;;;5.03;;
73015;SDS011;61893;50.074;14.440;2023-04-06T17:57:34;9.80;;;5.97;;
73015;SDS011;61893;50.074;14.440;2023-04-06T18:00:39;9.03;;;5.73;;
73015;SDS011;61893;50.074;14.440;2023-04-06T18:03:31;7.57;;;4.87;;